Time;durP1;ratioP1;P1;durP2;ratioP2;P2;SDS_P1;SDS_P2;PMS_P1;PMS_P2;Temp;Humidity;BMP_temperature;BMP_pressure;BME280_temperature;BME280_humidity;BME280_pressure;Samples;Min_cycle;Max_cycle;Signal;HPM_P1;HPM_P2
2022/04/06 00:01:29;;;;;;;3.58;1.35;;;;;;;14.55;42.03;102389.28;4952113;29;20110;-69
2022/04/06 00:03:58;;;;;;;5.22;1.08;;;;;;;14.50;42.10;102382.94;4951447;29;20112;-70
2022/04/06 00:06:26;;;;;;;6.10;1.95;;;;;;;14.31;40.73;102371.81;4954828;29;20074;-70
2022/04/06 00:08:55;;;;;;;3.85;1.27;;;;;;;14.17;41.98;102370.38;4953459;29;20051;-69
2022/04/06 00:11:23;;;;;;;4.07;0.90;;;;;;;13.96;41.63;102353.06;4952328;29;20047;-70
2022/04/06 00:13:52;;;;;;;4.40;1.05;;;;;;;14.01;43.28;102367.13;4951808;29;20090;-69
2022/04/06 00:16:20;;;;;;;2.95;0.93;;;;;;;14.01;42.55;102369.72;4951910;29;20142;-70
2022/04/06 00:18:51;;;;;;;8.07;1.17;;;;;;;14.03;43.55;102365.47;4950786;28;20047;-72
2022/04/06 00:21:23;;;;;;;4.35;1.10;;;;;;;14.15;41.50;102377.22;4951414;29;20058;-71
2022/04/06 00:23:51;;;;;;;3.88;0.90;;;;;;;14.19;41.43;102379.13;4951773;28;20137;-70
2022/04/06 00:26:20;;;;;;;4.50;0.90;;;;;;;14.20;42.20;102371.41;4951881;29;20122;-70
2022/04/06 00:28:48;;;;;;;4.20;1.40;;;;;;;14.25;39.95;102377.66;4951212;29;20082;-70
2022/04/06 00:31:17;;;;;;;7.22;1.55;;;;;;;14.25;42.91;102379.41;4951479;29;20493;-71
2022/04/06 00:33:45;;;;;;;4.47;1.17;;;;;;;14.22;39.20;102369.75;4951142;28;20051;-69
2022/04/06 00:36:22;;;;;;;4.90;1.23;;;;;;;14.25;40.28;102379.41;4950815;28;20078;-69
2022/04/06 00:38:50;;;;;;;3.97;1.10;;;;;;;14.31;39.52;102365.72;4951000;28;20098;-71
2022/04/06 00:41:19;;;;;;;7.65;1.17;;;;;;;14.50;40.67;102375.13;4950720;28;20106;-70
2022/04/06 00:44:06;;;;;;;4.68;1.10;;;;;;;14.52;41.48;102378.69;4950559;28;20113;-70
2022/04/06 00:46:34;;;;;;;2.85;0.90;;;;;;;14.44;41.89;102368.88;4951454;29;20079;-70
2022/04/06 00:49:03;;;;;;;5.63;1.48;;;;;;;14.44;41.20;102368.88;4950240;29;20047;-70
2022/04/06 00:51:33;;;;;;;5.68;1.20;;;;;;;14.37;39.76;102369.47;4950609;29;20078;-69
2022/04/06 00:54:02;;;;;;;6.13;1.30;;;;;;;14.31;41.02;102374.41;4950263;29;20102;-70
2022/04/06 00:56:30;;;;;;;6.07;1.30;;;;;;;14.21;39.80;102367.06;4951398;29;20473;-69
2022/04/06 00:58:59;;;;;;;4.55;1.02;;;;;;;14.10;39.95;102360.53;4951090;29;20486;-70
2022/04/06 01:01:27;;;;;;;2.08;0.80;;;;;;;13.91;40.85;102359.78;4952552;29;20122;-70
2022/04/06 01:03:56;;;;;;;2.80;1.10;;;;;;;13.88;41.04;102361.34;4951594;29;20051;-70
2022/04/06 01:06:25;;;;;;;4.88;1.13;;;;;;;13.94;40.77;102365.09;4951459;29;20625;-69
2022/04/06 01:08:55;;;;;;;5.05;1.58;;;;;;;13.94;42.30;102367.72;4950463;29;20494;-69
2022/04/06 01:11:25;;;;;;;4.88;1.35;;;;;;;13.91;42.35;102359.78;4950922;29;20043;-69
2022/04/06 01:13:54;;;;;;;4.07;1.02;;;;;;;13.92;43.37;102358.94;4950637;29;20048;-70
2022/04/06 01:16:23;;;;;;;2.75;0.95;;;;;;;13.87;43.08;102350.06;4950836;29;20105;-69
2022/04/06 01:18:51;;;;;;;6.60;1.05;;;;;;;13.89;45.00;102356.22;4950013;29;20062;-69
2022/04/06 01:21:20;;;;;;;6.25;1.30;;;;;;;13.85;44.05;102358.63;4950256;29;20043;-69
2022/04/06 01:23:50;;;;;;;4.38;1.10;;;;;;;13.76;42.98;102349.59;4950170;28;20608;-70
2022/04/06 01:26:19;;;;;;;7.47;1.38;;;;;;;13.79;43.71;102359.28;4950819;29;20047;-69
2022/04/06 01:28:47;;;;;;;3.05;1.30;;;;;;;13.83;43.83;102356.88;4950329;29;20569;-69
2022/04/06 01:31:16;;;;;;;4.90;1.02;;;;;;;13.87;44.57;102357.88;4949881;28;20046;-69
2022/04/06 01:33:44;;;;;;;6.05;1.20;;;;;;;13.89;42.61;102353.63;4950364;29;20138;-71
2022/04/06 01:36:13;;;;;;;5.70;1.38;;;;;;;13.89;42.15;102365.75;4949889;29;20078;-71
2022/04/06 01:38:41;;;;;;;4.90;1.25;;;;;;;13.77;42.08;102363.53;4950537;29;20051;-71
2022/04/06 01:41:11;;;;;;;2.20;1.00;;;;;;;13.71;42.11;102371.06;4950614;28;20052;-72
2022/04/06 01:43:40;;;;;;;4.78;0.93;;;;;;;13.72;41.44;102375.44;4949846;29;20100;-73
2022/04/06 01:46:08;;;;;;;3.92;1.17;;;;;;;13.62;41.81;102371.56;4949879;29;20118;-73
2022/04/06 01:52:11;;;;;;;5.15;1.48;;;;;;;13.59;42.14;102369.72;4949663;29;20047;-73
2022/04/06 01:54:10;;;;;;;2.08;0.63;;;;;;;13.57;44.39;102373.97;4950627;29;20558;-71
2022/04/06 01:56:40;;;;;;;2.78;1.30;;;;;;;13.55;40.63;102378.22;4951546;29;20047;-74
2022/04/06 01:59:09;;;;;;;4.18;1.25;;;;;;;13.48;41.64;102376.16;4951652;29;20055;-71
2022/04/06 02:01:38;;;;;;;7.65;1.23;;;;;;;13.45;40.87;102372.56;4950863;29;20586;-71
2022/04/06 02:04:15;;;;;;;2.53;1.30;;;;;;;13.44;42.66;102376.84;4950319;29;20106;-72
2022/04/06 02:06:50;;;;;;;3.03;1.17;;;;;;;13.47;43.38;102378.69;4950610;29;20090;-72
2022/04/06 02:09:20;;;;;;;3.40;1.15;;;;;;;13.49;43.42;102367.56;4949898;29;20055;-72
2022/04/06 02:11:51;;;;;;;3.38;1.05;;;;;;;13.50;42.45;102374.53;4949669;29;20588;-71
2022/04/06 02:14:27;;;;;;;4.53;0.95;;;;;;;13.51;42.59;102378.88;4950557;29;20118;-69
2022/04/06 02:16:55;;;;;;;2.58;0.68;;;;;;;13.53;43.38;102382.44;4949420;29;20051;-69
2022/04/06 02:19:24;;;;;;;3.13;1.20;;;;;;;13.51;42.27;102378.88;4949781;29;20051;-69
2022/04/06 02:21:52;;;;;;;1.50;0.60;;;;;;;13.50;41.97;102387.53;4953846;28;20058;-69
2022/04/06 02:24:21;;;;;;;2.75;0.70;;;;;;;13.46;42.32;102388.22;4970179;28;20074;-69
2022/04/06 02:26:51;;;;;;;3.05;0.88;;;;;;;13.43;41.70;102388.09;4969107;28;20047;-69
2022/04/06 02:29:19;;;;;;;3.13;0.63;;;;;;;13.40;43.24;102394.03;4969297;28;20055;-69
2022/04/06 02:31:48;;;;;;;3.35;1.02;;;;;;;13.36;41.63;102388.66;4960593;28;20047;-69
2022/04/06 02:34:16;;;;;;;3.92;1.27;;;;;;;13.33;41.42;102391.09;4949742;29;20157;-68
2022/04/06 02:36:45;;;;;;;2.00;0.80;;;;;;;13.29;41.15;102389.19;4949568;29;20156;-68
2022/04/06 02:39:13;;;;;;;3.50;0.60;;;;;;;13.21;41.75;102387.09;4950102;29;20040;-69
2022/04/06 02:41:42;;;;;;;2.90;1.00;;;;;;;13.16;42.51;102391.19;4949458;28;20184;-69
2022/04/06 02:44:12;;;;;;;4.18;1.38;;;;;;;13.10;41.79;102395.22;4952738;29;20079;-69
2022/04/06 02:46:40;;;;;;;5.05;1.10;;;;;;;13.04;41.87;102392.38;4953386;29;20619;-68
2022/04/06 02:49:09;;;;;;;2.05;0.80;;;;;;;12.97;43.57;102402.47;4952903;29;20494;-69
2022/04/06 02:51:37;;;;;;;3.28;0.88;;;;;;;12.92;43.97;102400.50;4953922;29;20617;-69
2022/04/06 02:54:06;;;;;;;4.53;1.00;;;;;;;12.85;44.01;102398.41;4954754;29;20051;-70
2022/04/06 02:56:34;;;;;;;3.83;0.93;;;;;;;12.75;45.38;102397.97;4953618;29;20055;-69
2022/04/06 02:59:03;;;;;;;7.03;1.42;;;;;;;12.66;44.89;102407.94;4952827;29;20110;-69
2022/04/06 03:01:33;;;;;;;4.25;1.13;;;;;;;12.57;43.82;102410.09;4953004;29;20039;-69
2022/04/06 03:04:02;;;;;;;3.30;1.25;;;;;;;12.48;42.55;102409.66;4952863;29;20094;-69
2022/04/06 03:06:30;;;;;;;8.07;1.25;;;;;;;12.40;45.08;102413.59;4952953;29;20082;-69
2022/04/06 03:08:59;;;;;;;3.53;1.23;;;;;;;12.29;44.10;102413.94;4952815;29;20059;-75
2022/04/06 03:11:28;;;;;;;2.42;1.20;;;;;;;12.11;43.66;102402.66;4952748;29;20497;-72
2022/04/06 03:13:56;;;;;;;5.72;1.40;;;;;;;12.02;45.01;102412.59;4952510;29;20047;-71
2022/04/06 03:16:25;;;;;;;5.13;1.08;;;;;;;12.04;45.10;102423.94;4952794;29;20050;-72
2022/04/06 03:18:55;;;;;;;4.22;1.35;;;;;;;11.97;44.91;102421.84;4952366;29;20890;-71
2022/04/06 03:21:23;;;;;;;4.53;1.27;;;;;;;11.91;45.13;102423.34;4953040;29;20044;-71
2022/04/06 03:23:54;;;;;;;3.40;1.30;;;;;;;11.84;45.71;102416.03;4952181;28;20656;-71
2022/04/06 03:26:23;;;;;;;5.88;1.20;;;;;;;11.79;45.45;102419.19;4915024;29;20534;-72
2022/04/06 03:28:51;;;;;;;5.28;1.15;;;;;;;11.69;46.77;102420.41;4914232;29;20474;-71
2022/04/06 03:31:22;;;;;;;4.78;1.00;;;;;;;11.50;50.71;102416.88;4914196;29;20056;-77
2022/04/06 03:33:51;;;;;;;3.65;1.13;;;;;;;11.52;49.20;102443.78;4914337;29;20125;-73
2022/04/06 03:36:21;;;;;;;6.10;1.38;;;;;;;11.45;49.31;102439.06;4914374;29;20056;-72
2022/04/06 03:38:49;;;;;;;4.05;0.80;;;;;;;11.37;47.84;102440.34;4914349;29;20052;-73
2022/04/06 03:41:18;;;;;;;3.05;0.95;;;;;;;11.32;48.66;102449.59;4914340;29;20051;-73
2022/04/06 03:43:52;;;;;;;4.70;1.05;;;;;;;11.23;48.09;102452.56;4913793;29;20087;-73
2022/04/06 03:46:21;;;;;;;6.15;0.82;;;;;;;11.11;49.67;102452.81;4914201;29;20490;-72
2022/04/06 03:48:52;;;;;;;4.15;1.08;;;;;;;11.03;46.85;102464.44;4917029;29;20048;-73
2022/04/06 03:51:22;;;;;;;2.92;0.70;;;;;;;10.95;48.67;102460.56;4896064;29;20559;-71
2022/04/06 03:53:51;;;;;;;1.40;0.75;;;;;;;10.83;53.11;102465.91;4894196;29;20044;-71
2022/04/06 03:56:19;;;;;;;2.58;0.93;;;;;;;10.72;51.15;102461.88;4895066;29;20087;-71
2022/04/06 03:58:47;;;;;;;6.60;1.95;;;;;;;10.65;49.93;102470.97;4894894;29;20063;-73
2022/04/06 04:01:16;;;;;;;3.45;0.98;;;;;;;10.55;49.51;102472.94;4894769;29;20048;-71
2022/04/06 04:03:45;;;;;;;2.63;0.60;;;;;;;10.45;50.38;102479.31;4895099;29;20135;-71
2022/04/06 04:06:13;;;;;;;6.65;1.25;;;;;;;10.32;46.41;102471.63;4895152;29;20084;-72
2022/04/06 04:08:43;;;;;;;1.88;0.65;;;;;;;10.24;45.84;102477.22;4894576;29;20056;-70
2022/04/06 04:11:12;;;;;;;1.48;0.77;;;;;;;10.21;50.89;102477.03;4894963;29;20052;-71
2022/04/06 04:13:40;;;;;;;6.38;1.05;;;;;;;10.16;49.38;102480.16;4900957;29;20048;-72
2022/04/06 04:16:09;;;;;;;2.92;0.60;;;;;;;10.08;49.16;102490.06;4913857;29;20550;-71
2022/04/06 04:18:38;;;;;;;4.93;0.65;;;;;;;9.93;49.26;102469.34;4913524;29;20052;-72
2022/04/06 04:23:53;;;;;;;1.17;0.52;;;;;;;9.84;49.49;102499.81;4913228;29;20146;-73
2022/04/06 04:26:22;;;;;;;2.25;0.60;;;;;;;9.65;48.49;102502.97;4951747;28;20083;-72
2022/04/06 04:28:50;;;;;;;5.30;1.23;;;;;;;9.63;48.36;102505.47;4951042;29;20079;-73
2022/04/06 04:31:19;;;;;;;2.22;1.25;;;;;;;9.55;49.61;102496.38;4950835;29;20070;-73
2022/04/06 04:33:47;;;;;;;2.47;0.70;;;;;;;9.59;49.20;102502.59;4951278;28;20057;-75
2022/04/06 04:36:17;;;;;;;3.25;0.70;;;;;;;9.55;51.80;102518.69;4951276;28;20075;-71
2022/04/06 04:38:46;;;;;;;5.05;0.93;;;;;;;9.51;52.31;102516.75;4951067;28;20520;-72
2022/04/06 04:41:16;;;;;;;2.03;0.68;;;;;;;9.50;49.98;102517.53;4950419;28;20055;-72
2022/04/06 04:43:45;;;;;;;6.63;0.70;;;;;;;9.41;50.91;102503.25;4952825;28;20059;-74
2022/04/06 04:46:13;;;;;;;2.88;0.90;;;;;;;9.49;50.92;102528.69;4953676;28;20149;-72
2022/04/06 04:48:42;;;;;;;5.55;1.20;;;;;;;9.47;51.21;102522.53;4951914;28;20150;-73
2022/04/06 04:51:10;;;;;;;4.25;0.70;;;;;;;9.40;52.19;102519.53;4950816;28;20549;-74
2022/04/06 04:53:39;;;;;;;5.45;0.77;;;;;;;9.37;49.99;102524.53;4950769;29;20110;-74
2022/04/06 04:56:08;;;;;;;3.70;0.90;;;;;;;9.30;50.43;102521.44;4950876;29;20505;-72
2022/04/06 04:58:38;;;;;;;6.57;1.02;;;;;;;9.19;51.73;102513.94;4950800;29;20047;-72
2022/04/06 05:01:07;;;;;;;3.08;1.13;;;;;;;9.16;48.26;102521.50;4951362;29;20043;-72
2022/04/06 05:03:35;;;;;;;7.43;1.00;;;;;;;9.12;52.09;102513.47;4950527;29;20066;-72
2022/04/06 05:06:04;;;;;;;6.55;0.70;;;;;;;9.11;52.02;102511.66;4950341;28;20276;-71
2022/04/06 05:08:32;;;;;;;3.22;0.95;;;;;;;9.02;50.94;102512.88;4950707;29;20050;-71
2022/04/06 05:11:01;;;;;;;3.85;1.13;;;;;;;8.91;53.58;102511.28;4950839;29;20104;-71
2022/04/06 05:13:29;;;;;;;2.25;0.80;;;;;;;8.85;55.45;102518.63;4950955;29;20047;-70
2022/04/06 05:15:59;;;;;;;2.80;0.77;;;;;;;8.66;51.73;102495.91;4950250;29;20114;-70
2022/04/06 05:18:29;;;;;;;4.60;1.15;;;;;;;8.66;53.64;102511.38;4951098;29;20087;-70
2022/04/06 05:20:58;;;;;;;6.28;1.05;;;;;;;8.53;52.92;102501.94;4950607;29;20053;-73
2022/04/06 05:23:26;;;;;;;4.57;1.48;;;;;;;8.43;58.02;102507.28;4950290;29;20102;-70
2022/04/06 05:25:55;;;;;;;3.83;1.00;;;;;;;8.36;57.49;102499.88;4950395;28;20204;-70
2022/04/06 05:28:23;;;;;;;4.65;0.80;;;;;;;8.36;56.98;102498.22;4950641;29;20101;-69
2022/04/06 05:30:52;;;;;;;5.07;0.80;;;;;;;8.36;55.54;102497.31;4950028;29;20150;-70
2022/04/06 05:33:22;;;;;;;3.17;1.55;;;;;;;8.29;54.76;102498.59;4950194;28;20489;-70
2022/04/06 05:35:50;;;;;;;4.10;1.67;;;;;;;8.28;55.57;102511.41;4950411;28;20055;-70
2022/04/06 05:38:19;;;;;;;8.02;1.27;;;;;;;8.25;56.24;102506.03;4950355;28;20130;-70
2022/04/06 05:40:47;;;;;;;3.97;1.00;;;;;;;8.22;54.21;102510.97;4952703;28;20082;-70
2022/04/06 05:43:16;;;;;;;1.58;1.00;;;;;;;8.23;55.54;102512.78;4950121;28;20122;-70
2022/04/06 05:45:44;;;;;;;5.95;1.35;;;;;;;8.22;52.47;102509.28;4950075;28;20094;-70
2022/04/06 05:48:13;;;;;;;3.80;0.70;;;;;;;8.24;52.79;102512.84;4950472;28;20051;-70
2022/04/06 05:50:43;;;;;;;5.95;1.10;;;;;;;8.24;52.37;102514.56;4950025;28;20106;-69
2022/04/06 05:53:11;;;;;;;5.93;0.93;;;;;;;8.24;53.40;102517.13;4949587;29;20454;-69
2022/04/06 05:55:40;;;;;;;5.82;0.70;;;;;;;8.23;52.94;102516.25;4950659;29;20574;-69
2022/04/06 05:58:09;;;;;;;4.13;0.90;;;;;;;8.25;53.26;102529.25;4949735;29;20078;-70
2022/04/06 06:00:38;;;;;;;3.13;1.10;;;;;;;8.23;52.80;102521.41;4949958;29;20445;-71
2022/04/06 06:03:06;;;;;;;2.97;0.95;;;;;;;8.24;53.38;102524.88;4949510;29;20043;-70
2022/04/06 06:05:35;;;;;;;14.45;1.35;;;;;;;8.18;53.22;102510.78;4950457;29;20059;-70
2022/04/06 06:08:05;;;;;;;8.18;1.13;;;;;;;8.17;51.88;102519.28;4950036;29;20102;-70
2022/04/06 06:10:34;;;;;;;2.25;0.80;;;;;;;8.16;52.19;102512.34;4950699;29;20509;-71
2022/04/06 06:13:02;;;;;;;2.20;0.68;;;;;;;8.15;53.18;102526.06;4949894;29;20047;-70
2022/04/06 06:15:31;;;;;;;3.85;0.90;;;;;;;8.16;52.48;102521.78;4950559;29;20489;-71
2022/04/06 06:17:59;;;;;;;6.20;1.30;;;;;;;8.14;53.03;102524.25;4951531;28;20059;-70
2022/04/06 06:20:28;;;;;;;3.80;1.23;;;;;;;8.14;53.07;102529.41;4953800;29;20477;-70
2022/04/06 06:22:57;;;;;;;3.63;0.88;;;;;;;8.12;53.46;102533.56;4952998;29;20047;-71
2022/04/06 06:25:28;;;;;;;5.80;1.42;;;;;;;8.10;52.78;102521.34;4954043;28;20071;-69
2022/04/06 06:27:56;;;;;;;3.70;1.13;;;;;;;8.08;52.76;102518.66;4953483;29;20047;-70
2022/04/06 06:30:27;;;;;;;8.48;0.90;;;;;;;8.07;53.39;102524.63;4953721;29;20549;-70
2022/04/06 06:32:55;;;;;;;6.65;1.02;;;;;;;8.06;53.42;102527.09;4953037;29;20425;-70
2022/04/06 06:35:25;;;;;;;3.08;1.10;;;;;;;8.02;53.53;102527.66;4953418;28;20552;-69
2022/04/06 06:37:55;;;;;;;5.10;0.77;;;;;;;8.00;54.48;102531.84;4954704;28;20058;-70
2022/04/06 06:40:24;;;;;;;5.10;0.93;;;;;;;7.97;54.49;102532.50;4956278;28;20062;-70
2022/04/06 06:42:55;;;;;;;7.72;0.95;;;;;;;7.96;53.91;102541.03;4954203;28;20044;-70
2022/04/06 06:45:23;;;;;;;5.65;1.17;;;;;;;7.93;53.03;102533.09;4953093;28;20615;-69
2022/04/06 06:47:52;;;;;;;2.45;0.80;;;;;;;7.93;53.20;102533.09;4953365;28;20134;-70
2022/04/06 06:50:21;;;;;;;5.60;0.90;;;;;;;7.93;53.48;102525.38;4953055;28;20078;-70
2022/04/06 06:52:50;;;;;;;4.88;1.10;;;;;;;7.91;53.50;102525.25;4953056;29;20055;-69
2022/04/06 06:55:19;;;;;;;3.65;0.93;;;;;;;7.89;53.77;102538.84;4953356;29;20102;-69
2022/04/06 06:57:48;;;;;;;5.68;0.88;;;;;;;7.88;58.01;102534.44;4952810;29;20051;-70
2022/04/06 07:00:20;;;;;;;6.90;1.17;;;;;;;7.85;55.42;102534.25;4952656;29;20489;-69
2022/04/06 07:02:49;;;;;;;4.88;0.75;;;;;;;7.82;56.28;102534.06;4953036;29;20102;-69
2022/04/06 07:05:17;;;;;;;2.00;0.68;;;;;;;7.78;56.25;102538.09;4952712;29;20091;-69
2022/04/06 07:07:53;;;;;;;2.22;0.90;;;;;;;7.72;55.64;102542.84;4952896;29;20069;-70
2022/04/06 07:10:22;;;;;;;8.02;1.00;;;;;;;7.66;58.63;102548.44;4953311;29;20114;-70
2022/04/06 07:12:51;;;;;;;5.35;1.00;;;;;;;7.61;58.81;102549.81;4953161;29;20134;-70
2022/04/06 07:15:21;;;;;;;4.35;0.80;;;;;;;7.52;57.06;102534.59;4933811;29;20154;-69
2022/04/06 07:17:53;;;;;;;2.13;0.70;;;;;;;7.52;55.54;102537.16;4951051;29;20055;-69
2022/04/06 07:20:22;;;;;;;4.60;1.13;;;;;;;7.55;55.86;102546.78;4952723;29;20051;-69
2022/04/06 07:22:50;;;;;;;2.13;0.60;;;;;;;7.53;57.21;102548.34;4952119;29;20095;-69
2022/04/06 07:25:19;;;;;;;5.05;1.35;;;;;;;7.53;57.86;102558.66;4952613;28;20481;-70
2022/04/06 07:27:48;;;;;;;4.43;0.98;;;;;;;7.51;56.73;102552.50;4952476;29;20587;-70
2022/04/06 07:30:17;;;;;;;9.88;1.15;;;;;;;7.49;56.60;102557.56;4952431;28;20529;-70
2022/04/06 07:32:47;;;;;;;7.45;1.30;;;;;;;7.49;58.59;102556.66;4951994;29;20049;-70
2022/04/06 07:35:16;;;;;;;2.05;0.68;;;;;;;7.44;61.33;102560.59;4952915;29;20485;-70
2022/04/06 07:37:47;;;;;;;2.88;0.70;;;;;;;7.40;61.60;102558.56;4955425;29;20052;-70
2022/04/06 07:40:17;;;;;;;3.28;1.02;;;;;;;7.37;61.57;102560.94;4953017;28;20051;-70
2022/04/06 07:42:46;;;;;;;7.72;0.90;;;;;;;7.33;62.86;102553.00;4952059;28;20143;-70
2022/04/06 07:45:16;;;;;;;3.85;0.80;;;;;;;7.32;62.43;102553.78;4952015;28;20062;-70
2022/04/06 07:47:47;;;;;;;4.85;1.10;;;;;;;7.29;61.54;102561.28;4951460;28;20276;-70
2022/04/06 07:50:16;;;;;;;4.07;1.05;;;;;;;7.19;60.21;102542.47;4951339;29;20567;-70
2022/04/06 07:52:45;;;;;;;5.50;1.00;;;;;;;7.21;59.52;102551.22;4952092;29;20195;-70
2022/04/06 07:55:15;;;;;;;4.28;1.25;;;;;;;7.16;60.87;102553.47;4952082;29;20047;-69
2022/04/06 07:57:44;;;;;;;11.75;1.25;;;;;;;7.12;60.93;102559.16;4951977;29;20079;-70
2022/04/06 08:00:15;;;;;;;2.15;0.80;;;;;;;7.08;60.27;102562.31;4951602;29;20134;-70
2022/04/06 08:02:46;;;;;;;9.77;1.00;;;;;;;7.03;60.87;102558.50;4951649;29;20047;-70
2022/04/06 08:05:15;;;;;;;5.45;1.23;;;;;;;7.00;60.89;102563.44;4951716;29;20149;-70
2022/04/06 08:07:44;;;;;;;6.55;1.13;;;;;;;6.96;60.71;102558.84;4952106;29;20055;-70
2022/04/06 08:10:14;;;;;;;4.07;1.33;;;;;;;6.94;61.47;102553.59;4951958;29;20057;-70
2022/04/06 08:12:43;;;;;;;7.32;1.13;;;;;;;6.89;61.32;102558.41;4952027;29;20146;-70
2022/04/06 08:15:12;;;;;;;6.03;0.82;;;;;;;6.86;60.70;102547.00;4951902;29;20545;-70
2022/04/06 08:17:43;;;;;;;3.72;1.13;;;;;;;6.83;60.86;102546.78;4951622;29;20138;-70
2022/04/06 08:20:14;;;;;;;2.70;1.13;;;;;;;6.80;61.09;102547.41;4951932;29;20125;-70
2022/04/06 08:22:45;;;;;;;3.60;0.80;;;;;;;6.78;61.25;102546.44;4951746;29;20110;-69
2022/04/06 08:25:14;;;;;;;10.43;1.42;;;;;;;6.75;61.13;102532.44;4951612;28;20071;-70
2022/04/06 08:27:42;;;;;;;4.60;1.38;;;;;;;6.73;61.23;102534.88;4951761;29;20110;-70
2022/04/06 08:30:13;;;;;;;3.58;1.23;;;;;;;6.70;61.29;102535.56;4950930;29;20043;-70
2022/04/06 08:32:41;;;;;;;6.75;0.95;;;;;;;6.69;62.21;102527.75;4951770;29;20054;-70
2022/04/06 08:35:17;;;;;;;7.60;1.23;;;;;;;6.67;63.65;102524.19;4954418;28;20048;-69
2022/04/06 08:38:19;;;;;;;5.85;1.38;;;;;;;6.66;63.90;102533.53;4948324;28;20062;-69
2022/04/06 08:40:50;;;;;;;6.10;1.00;;;;;;;6.64;63.17;102547.06;4951077;28;20560;-70
2022/04/06 08:43:24;;;;;;;4.25;1.15;;;;;;;6.62;62.20;102544.41;4950842;28;20059;-70
2022/04/06 08:45:57;;;;;;;10.05;1.58;;;;;;;6.63;62.22;102547.88;4950596;28;20120;-70
2022/04/06 08:48:30;;;;;;;5.75;1.08;;;;;;;6.61;62.64;102541.72;4950260;28;20663;-70
2022/04/06 08:51:03;;;;;;;3.72;1.00;;;;;;;6.58;62.60;102544.06;4950378;28;20069;-70
2022/04/06 08:53:32;;;;;;;3.22;0.93;;;;;;;6.56;62.62;102545.63;4951078;29;20066;-70
2022/04/06 08:56:00;;;;;;;3.55;1.25;;;;;;;6.53;62.17;102547.94;4950276;29;20106;-70
2022/04/06 08:58:28;;;;;;;5.78;1.02;;;;;;;6.47;63.22;102539.00;4950693;29;20050;-69
2022/04/06 09:00:57;;;;;;;8.48;1.20;;;;;;;6.42;63.05;102531.75;4950658;29;20509;-69
2022/04/06 09:03:26;;;;;;;8.18;1.23;;;;;;;6.42;62.91;102542.91;4950455;29;20379;-69
2022/04/06 09:06:04;;;;;;;8.90;1.60;;;;;;;6.43;62.64;102543.81;4951023;29;20137;-69
2022/04/06 09:08:39;;;;;;;5.03;0.90;;;;;;;6.41;63.01;102540.22;4950405;29;20063;-70
2022/04/06 09:11:11;;;;;;;2.35;0.52;;;;;;;6.40;63.10;102543.59;4951045;29;20055;-70
2022/04/06 09:13:50;;;;;;;6.18;1.10;;;;;;;6.37;63.35;102533.06;4950504;29;20043;-70
2022/04/06 09:16:20;;;;;;;8.23;1.38;;;;;;;6.36;64.50;102532.16;4950681;29;20047;-70
2022/04/06 09:18:49;;;;;;;3.40;0.93;;;;;;;6.34;63.62;102541.44;4950886;29;20050;-70
2022/04/06 09:21:20;;;;;;;4.90;1.42;;;;;;;6.31;63.63;102543.78;4950867;29;20076;-70
2022/04/06 09:23:52;;;;;;;3.72;1.05;;;;;;;6.29;64.01;102540.19;4949748;29;20522;-69
2022/04/06 09:26:28;;;;;;;4.82;1.17;;;;;;;6.26;64.21;102543.44;4951025;28;20059;-69
2022/04/06 09:28:56;;;;;;;8.60;0.80;;;;;;;6.28;64.68;102546.13;4950311;29;20135;-69
2022/04/06 09:31:25;;;;;;;9.93;1.42;;;;;;;6.28;64.82;102535.84;4950273;29;20112;-69
2022/04/06 09:34:00;;;;;;;8.45;2.00;;;;;;;6.31;63.95;102537.75;4953641;28;20077;-70
2022/04/06 09:36:31;;;;;;;4.22;1.25;;;;;;;6.30;63.97;102536.88;4950645;28;20051;-71
2022/04/06 09:39:00;;;;;;;9.85;1.00;;;;;;;6.32;64.31;102529.25;4950735;28;20047;-72
2022/04/06 09:41:30;;;;;;;4.85;0.90;;;;;;;6.33;64.33;102526.81;4949645;28;20109;-70
2022/04/06 09:47:38;;;;;;;5.95;1.25;;;;;;;6.36;63.44;102513.28;4949921;28;20051;-69
2022/04/06 09:50:10;;;;;;;6.53;1.60;;;;;;;6.37;64.65;102507.34;4949882;29;20054;-70
2022/04/06 09:52:41;;;;;;;6.70;1.13;;;;;;;6.35;63.61;102496.06;4949336;29;20052;-71
2022/04/06 09:55:11;;;;;;;2.88;1.15;;;;;;;6.33;64.88;102506.22;4950233;29;20095;-71
2022/04/06 09:57:44;;;;;;;2.97;1.05;;;;;;;6.29;65.36;102505.09;4950062;29;20081;-71
2022/04/06 10:00:13;;;;;;;;;;;;;;;6.25;64.96;102497.03;4950975;29;20045;-71
2022/04/06 10:02:43;;;;;;;7.63;1.15;;;;;;;6.24;65.05;102495.28;4950697;29;19929;-72
2022/04/06 10:05:14;;;;;;;5.80;0.93;;;;;;;6.22;65.90;102500.28;4949669;29;20078;-70
2022/04/06 10:07:45;;;;;;;8.45;1.05;;;;;;;6.19;65.20;102501.75;4950482;29;20059;-70
2022/04/06 10:10:14;;;;;;;10.38;1.55;;;;;;;6.18;65.92;102508.53;4950348;29;20055;-69
2022/04/06 10:12:43;;;;;;;5.05;1.25;;;;;;;6.17;65.19;102508.44;4950387;29;20047;-70
2022/04/06 10:15:13;;;;;;;7.60;1.30;;;;;;;6.15;65.98;102499.72;4949998;29;20059;-70
2022/04/06 10:17:41;;;;;;;7.05;1.52;;;;;;;6.15;65.84;102507.44;4950261;29;20102;-70
2022/04/06 10:20:24;;;;;;;8.93;1.50;;;;;;;6.15;66.23;102502.28;4950340;29;20142;-70
2022/04/06 10:23:14;;;;;;;6.00;1.92;;;;;;;6.14;66.38;102500.47;4949562;29;20058;-70
2022/04/06 10:25:59;;;;;;;5.35;1.23;;;;;;;6.12;66.31;102496.94;4950575;28;20505;-71
2022/04/06 10:28:28;;;;;;;6.20;1.40;;;;;;;6.11;67.23;102497.69;4949857;29;20059;-71
2022/04/06 10:31:19;;;;;;;10.20;1.40;;;;;;;6.10;66.88;102495.91;4950562;29;20573;-71
2022/04/06 10:33:48;;;;;;;8.98;1.60;;;;;;;6.05;66.89;102496.44;4952336;29;20074;-70
2022/04/06 10:36:26;;;;;;;11.43;1.45;;;;;;;6.02;67.91;102496.19;4950242;28;20063;-70
2022/04/06 10:39:17;;;;;;;3.88;1.58;;;;;;;6.01;68.95;102516.66;4949566;28;20335;-70
2022/04/06 10:42:15;;;;;;;3.85;0.90;;;;;;;6.00;68.44;102502.00;4950034;28;20573;-70
2022/04/06 10:44:44;;;;;;;3.85;0.95;;;;;;;5.95;68.63;102501.66;4949557;29;20134;-69
2022/04/06 10:47:14;;;;;;;9.80;1.27;;;;;;;5.93;68.60;102498.03;4950090;29;20564;-69
2022/04/06 10:49:43;;;;;;;5.80;1.48;;;;;;;5.88;69.34;102507.97;4949724;28;20051;-70
2022/04/06 10:52:26;;;;;;;6.72;1.38;;;;;;;5.84;68.94;102505.03;4946150;29;21259;-70
2022/04/06 10:54:58;;;;;;;4.53;1.08;;;;;;;5.78;69.59;102504.59;4949294;29;20062;-70
2022/04/06 10:58:01;;;;;;;8.98;1.00;;;;;;;5.79;69.36;102519.22;4949422;29;20062;-70
2022/04/06 11:00:30;;;;;;;9.05;1.20;;;;;;;5.80;69.52;102510.75;4949350;29;20095;-70
2022/04/06 11:03:16;;;;;;;6.55;2.33;;;;;;;5.77;69.59;102511.41;4949389;28;20066;-70
2022/04/06 11:05:49;;;;;;;4.32;1.30;;;;;;;5.74;70.10;102494.84;4952587;29;20078;-70
2022/04/06 11:11:45;;;;;;;2.88;0.82;;;;;;;5.71;71.82;102481.78;4953178;29;20058;-70
2022/04/06 11:14:15;;;;;;;3.90;1.10;;;;;;;5.69;73.27;102473.06;4953334;29;20055;-70
2022/04/06 11:16:52;;;;;;;6.18;1.08;;;;;;;5.66;72.92;102474.63;4953195;29;20126;-70
2022/04/06 11:19:20;;;;;;;6.90;1.50;;;;;;;5.64;72.11;102473.59;4953206;29;20059;-70
2022/04/06 11:21:51;;;;;;;6.65;0.90;;;;;;;5.63;71.94;102470.91;4953009;29;20568;-70
2022/04/06 11:24:21;;;;;;;2.28;0.95;;;;;;;5.63;71.88;102471.78;4952750;29;20678;-70
2022/04/06 11:26:54;;;;;;;6.05;1.15;;;;;;;5.64;71.63;102472.72;4952811;28;20517;-69
2022/04/06 11:29:28;;;;;;;11.70;1.23;;;;;;;5.63;70.67;102466.66;4954547;28;20515;-70
2022/04/06 11:31:57;;;;;;;9.23;1.63;;;;;;;5.62;70.69;102462.31;4955533;28;20055;-70
2022/04/06 11:34:37;;;;;;;5.82;1.30;;;;;;;5.59;70.81;102451.81;4952593;28;20122;-69
2022/04/06 11:37:07;;;;;;;4.78;1.45;;;;;;;5.58;71.66;102459.41;4952663;28;20051;-70
2022/04/06 11:39:36;;;;;;;6.28;1.15;;;;;;;5.56;71.35;102446.44;4952052;28;20678;-69
2022/04/06 11:42:08;;;;;;;4.35;0.90;;;;;;;5.48;71.85;102439.81;4952476;28;20047;-69
2022/04/06 11:44:39;;;;;;;12.20;1.23;;;;;;;5.52;71.40;102446.06;4951967;28;20066;-69
2022/04/06 11:47:07;;;;;;;9.85;1.30;;;;;;;5.52;71.41;102451.22;4952669;28;20494;-69
2022/04/06 11:49:37;;;;;;;8.40;1.17;;;;;;;5.51;71.16;102447.75;4952083;28;20102;-68
2022/04/06 11:52:07;;;;;;;6.63;1.17;;;;;;;5.50;71.33;102456.25;4951833;28;20189;-69
2022/04/06 11:54:35;;;;;;;7.20;2.05;;;;;;;5.48;70.19;102455.22;4952330;29;20672;-69
2022/04/06 11:57:04;;;;;;;8.48;1.35;;;;;;;5.47;71.47;102453.41;4951852;29;20051;-70